Aviation Digital Data Service (ADDS)

Output produced by TAFs form (1132 UTC 19 January 2018)
found at http://www.aviationweather.gov/adds/tafs/
 
RJFU 191100Z 13003KT CAVOK 07/04 Q1019
TAF RJFU 191111Z 1912/2018 14004KT 9000 FEW045 
     BECMG 2000/2003 32007KT 
     BECMG 2012/2015 14004KT